sensor_id;sensor_type;location;lat;lon;timestamp;pressure;altitude;pressure_sealevel;temperature;humidity
13033;BME280;6583;42.632;23.298;2023-03-14T00:02:13;71619.09;;;-146.40;56.42
13033;BME280;6583;42.632;23.298;2023-03-14T00:04:41;71594.81;;;-146.40;56.35
13033;BME280;6583;42.632;23.298;2023-03-14T00:07:10;71576.59;;;-146.40;55.78
13033;BME280;6583;42.632;23.298;2023-03-14T00:09:36;71566.50;;;-146.40;52.92
13033;BME280;6583;42.632;23.298;2023-03-14T00:12:03;71568.50;;;-146.40;50.59
13033;BME280;6583;42.632;23.298;2023-03-14T00:14:31;71580.66;;;-146.40;50.90
13033;BME280;6583;42.632;23.298;2023-03-14T00:16:57;71586.72;;;-146.40;52.18
13033;BME280;6583;42.632;23.298;2023-03-14T00:19:24;71576.59;;;-146.40;53.42
13033;BME280;6583;42.632;23.298;2023-03-14T00:21:52;71560.41;;;-146.40;55.20
13033;BME280;6583;42.632;23.298;2023-03-14T00:24:19;71552.31;;;-146.40;51.87
13033;BME280;6583;42.632;23.298;2023-03-14T00:26:45;71560.41;;;-146.40;51.28
13033;BME280;6583;42.632;23.298;2023-03-14T00:29:12;71586.72;;;-146.40;51.99
13033;BME280;6583;42.632;23.298;2023-03-14T00:31:39;71617.09;;;-146.40;52.01
13033;BME280;6583;42.632;23.298;2023-03-14T00:34:06;71621.13;;;-146.40;52.83
13033;BME280;6583;42.632;23.298;2023-03-14T00:36:32;71651.50;;;-146.40;53.29
13033;BME280;6583;42.632;23.298;2023-03-14T00:39:00;71659.59;;;-146.40;54.29
13033;BME280;6583;42.632;23.298;2023-03-14T00:41:27;71659.59;;;-146.40;55.11
13033;BME280;6583;42.632;23.298;2023-03-14T00:43:54;71657.56;;;-146.40;54.22
13033;BME280;6583;42.632;23.298;2023-03-14T00:46:20;71655.53;;;-146.40;54.24
13033;BME280;6583;42.632;23.298;2023-03-14T00:48:47;71661.59;;;-146.40;55.26
13033;BME280;6583;42.632;23.298;2023-03-14T00:51:15;71663.63;;;-146.40;55.40
13033;BME280;6583;42.632;23.298;2023-03-14T00:53:42;71691.97;;;-146.40;56.03
13033;BME280;6583;42.632;23.298;2023-03-14T00:56:12;71689.94;;;-146.40;57.33
13033;BME280;6583;42.632;23.298;2023-03-14T00:58:39;71696.00;;;-146.40;57.53
13033;BME280;6583;42.632;23.298;2023-03-14T01:01:06;71691.97;;;-146.40;58.28
13033;BME280;6583;42.632;23.298;2023-03-14T01:03:33;71685.91;;;-146.40;57.63
13033;BME280;6583;42.632;23.298;2023-03-14T01:06:08;71679.81;;;-146.40;57.87
13033;BME280;6583;42.632;23.298;2023-03-14T01:08:35;71675.78;;;-146.40;58.52
13033;BME280;6583;42.632;23.298;2023-03-14T01:11:05;71679.81;;;-146.40;58.47
13033;BME280;6583;42.632;23.298;2023-03-14T01:13:34;71691.97;;;-146.40;57.28
13033;BME280;6583;42.632;23.298;2023-03-14T01:16:02;71698.03;;;-146.40;57.85
13033;BME280;6583;42.632;23.298;2023-03-14T01:18:29;71675.78;;;-146.40;59.21
13033;BME280;6583;42.632;23.298;2023-03-14T01:20:56;71669.72;;;-146.40;60.28
13033;BME280;6583;42.632;23.298;2023-03-14T01:23:23;71645.41;;;-146.40;62.39
13033;BME280;6583;42.632;23.298;2023-03-14T01:25:49;71611.00;;;-146.40;62.62
13033;BME280;6583;42.632;23.298;2023-03-14T01:28:16;71615.06;;;-146.40;58.33
13033;BME280;6583;42.632;23.298;2023-03-14T01:30:44;71606.97;;;-146.40;56.19
13033;BME280;6583;42.632;23.298;2023-03-14T01:33:11;71604.94;;;-146.40;55.92
13033;BME280;6583;42.632;23.298;2023-03-14T01:35:38;71606.97;;;-146.40;56.10
13033;BME280;6583;42.632;23.298;2023-03-14T01:38:06;71613.03;;;-146.40;57.34
13033;BME280;6583;42.632;23.298;2023-03-14T01:40:32;71588.75;;;-146.40;59.40
13033;BME280;6583;42.632;23.298;2023-03-14T01:43:06;71574.59;;;-146.40;59.40
13033;BME280;6583;42.632;23.298;2023-03-14T01:46:20;71558.38;;;-146.40;56.23
13033;BME280;6583;42.632;23.298;2023-03-14T01:48:51;71558.38;;;-146.40;53.75
13033;BME280;6583;42.632;23.298;2023-03-14T01:51:21;71576.59;;;-146.40;53.73
13033;BME280;6583;42.632;23.298;2023-03-14T01:53:52;71588.75;;;-146.40;54.60
13033;BME280;6583;42.632;23.298;2023-03-14T01:56:21;71602.91;;;-146.40;54.64
13033;BME280;6583;42.632;23.298;2023-03-14T01:58:50;71619.09;;;-146.40;55.33
13033;BME280;6583;42.632;23.298;2023-03-14T02:01:21;71627.19;;;-146.40;56.44
13033;BME280;6583;42.632;23.298;2023-03-14T02:03:52;71631.25;;;-146.40;57.31
13033;BME280;6583;42.632;23.298;2023-03-14T02:06:23;71619.09;;;-146.40;57.13
13033;BME280;6583;42.632;23.298;2023-03-14T02:08:50;71625.19;;;-146.40;57.76
13033;BME280;6583;42.632;23.298;2023-03-14T02:11:18;71611.00;;;-146.40;57.99
13033;BME280;6583;42.632;23.298;2023-03-14T02:13:45;71592.78;;;-146.40;59.53
13033;BME280;6583;42.632;23.298;2023-03-14T02:16:12;71570.53;;;-146.40;59.54
13033;BME280;6583;42.632;23.298;2023-03-14T02:18:40;71554.34;;;-146.40;56.59
13033;BME280;6583;42.632;23.298;2023-03-14T02:21:12;71576.59;;;-146.40;56.10
13033;BME280;6583;42.632;23.298;2023-03-14T02:23:45;71592.78;;;-146.40;56.20
13033;BME280;6583;42.632;23.298;2023-03-14T02:26:16;71602.91;;;-146.40;57.04
13033;BME280;6583;42.632;23.298;2023-03-14T02:28:48;71619.09;;;-146.40;57.22
13033;BME280;6583;42.632;23.298;2023-03-14T02:31:15;71631.25;;;-146.40;57.86
13033;BME280;6583;42.632;23.298;2023-03-14T02:33:42;71649.47;;;-146.40;58.58
13033;BME280;6583;42.632;23.298;2023-03-14T02:36:11;71661.59;;;-146.40;59.11
13033;BME280;6583;42.632;23.298;2023-03-14T02:38:44;71657.56;;;-146.40;59.03
13033;BME280;6583;42.632;23.298;2023-03-14T02:41:13;71667.69;;;-146.40;58.46
13033;BME280;6583;42.632;23.298;2023-03-14T02:43:39;71696.00;;;-146.40;58.13
13033;BME280;6583;42.632;23.298;2023-03-14T02:46:10;71700.06;;;-146.40;59.25
13033;BME280;6583;42.632;23.298;2023-03-14T02:48:40;71687.91;;;-146.40;60.95
13033;BME280;6583;42.632;23.298;2023-03-14T02:51:07;71683.88;;;-146.40;60.72
13033;BME280;6583;42.632;23.298;2023-03-14T02:53:35;71661.59;;;-146.40;61.37
13033;BME280;6583;42.632;23.298;2023-03-14T02:56:03;71645.41;;;-146.40;61.13
13033;BME280;6583;42.632;23.298;2023-03-14T02:58:30;71631.25;;;-146.40;59.68
13033;BME280;6583;42.632;23.298;2023-03-14T03:00:57;71615.06;;;-146.40;58.07
13033;BME280;6583;42.632;23.298;2023-03-14T03:03:25;71602.91;;;-146.40;59.72
13033;BME280;6583;42.632;23.298;2023-03-14T03:05:54;71590.78;;;-146.40;58.15
13033;BME280;6583;42.632;23.298;2023-03-14T03:08:23;71590.78;;;-146.40;56.27
13033;BME280;6583;42.632;23.298;2023-03-14T03:10:51;71588.75;;;-146.40;55.92
13033;BME280;6583;42.632;23.298;2023-03-14T03:13:18;71606.97;;;-146.40;55.97
13033;BME280;6583;42.632;23.298;2023-03-14T03:15:46;71619.09;;;-146.40;55.78
13033;BME280;6583;42.632;23.298;2023-03-14T03:18:12;71647.44;;;-146.40;56.45
13033;BME280;6583;42.632;23.298;2023-03-14T03:20:40;71649.47;;;-146.40;57.47
13033;BME280;6583;42.632;23.298;2023-03-14T03:23:07;71651.50;;;-146.40;58.43
13033;BME280;6583;42.632;23.298;2023-03-14T03:25:34;71661.59;;;-146.40;59.46
13033;BME280;6583;42.632;23.298;2023-03-14T03:28:00;71659.59;;;-146.40;59.43
13033;BME280;6583;42.632;23.298;2023-03-14T03:30:27;71673.75;;;-146.40;59.31
13033;BME280;6583;42.632;23.298;2023-03-14T03:32:54;71671.72;;;-146.40;60.81
13033;BME280;6583;42.632;23.298;2023-03-14T03:35:20;71673.75;;;-146.40;60.54
13033;BME280;6583;42.632;23.298;2023-03-14T03:37:48;71665.66;;;-146.40;60.95
13033;BME280;6583;42.632;23.298;2023-03-14T03:40:15;71657.56;;;-146.40;61.31
13033;BME280;6583;42.632;23.298;2023-03-14T03:42:42;71663.63;;;-146.40;61.79
13033;BME280;6583;42.632;23.298;2023-03-14T03:45:09;71665.66;;;-146.40;62.00
13033;BME280;6583;42.632;23.298;2023-03-14T03:47:36;71659.59;;;-146.40;61.72
13033;BME280;6583;42.632;23.298;2023-03-14T03:50:03;71663.63;;;-146.40;63.03
13033;BME280;6583;42.632;23.298;2023-03-14T03:52:30;71655.53;;;-146.40;64.21
13033;BME280;6583;42.632;23.298;2023-03-14T03:54:58;71657.56;;;-146.40;62.05
13033;BME280;6583;42.632;23.298;2023-03-14T03:57:24;71663.63;;;-146.40;61.19
13033;BME280;6583;42.632;23.298;2023-03-14T03:59:51;71675.78;;;-146.40;61.59
13033;BME280;6583;42.632;23.298;2023-03-14T04:02:18;71667.69;;;-146.40;62.22
13033;BME280;6583;42.632;23.298;2023-03-14T04:04:44;71651.50;;;-146.40;63.26
13033;BME280;6583;42.632;23.298;2023-03-14T04:07:11;71635.31;;;-146.40;63.09
13033;BME280;6583;42.632;23.298;2023-03-14T04:09:39;71613.03;;;-146.40;63.40
13033;BME280;6583;42.632;23.298;2023-03-14T04:12:07;71594.81;;;-146.40;62.80
13033;BME280;6583;42.632;23.298;2023-03-14T04:14:34;71582.69;;;-146.40;61.63
13033;BME280;6583;42.632;23.298;2023-03-14T04:17:00;71564.47;;;-146.40;58.93
13033;BME280;6583;42.632;23.298;2023-03-14T04:19:27;71574.59;;;-146.40;56.84
13033;BME280;6583;42.632;23.298;2023-03-14T04:21:53;71576.59;;;-146.40;57.80
13033;BME280;6583;42.632;23.298;2023-03-14T04:24:20;71568.50;;;-146.40;56.80
13033;BME280;6583;42.632;23.298;2023-03-14T04:26:47;71568.50;;;-146.40;56.52
13033;BME280;6583;42.632;23.298;2023-03-14T04:29:15;71566.50;;;-146.40;58.82
13033;BME280;6583;42.632;23.298;2023-03-14T04:31:41;71550.28;;;-146.40;59.42
13033;BME280;6583;42.632;23.298;2023-03-14T04:34:08;71538.16;;;-146.40;57.35
13033;BME280;6583;42.632;23.298;2023-03-14T04:36:35;71554.34;;;-146.40;56.09
13033;BME280;6583;42.632;23.298;2023-03-14T04:39:02;71562.44;;;-146.40;56.52
13033;BME280;6583;42.632;23.298;2023-03-14T04:41:29;71554.34;;;-146.40;58.93
13033;BME280;6583;42.632;23.298;2023-03-14T04:43:56;71542.19;;;-146.40;59.50
13033;BME280;6583;42.632;23.298;2023-03-14T04:46:24;71526.00;;;-146.40;59.60
13033;BME280;6583;42.632;23.298;2023-03-14T04:48:50;71517.91;;;-146.40;58.76
13033;BME280;6583;42.632;23.298;2023-03-14T04:51:17;71493.63;;;-146.40;59.05
13033;BME280;6583;42.632;23.298;2023-03-14T04:53:44;71489.59;;;-146.40;57.89
13033;BME280;6583;42.632;23.298;2023-03-14T04:56:10;71495.66;;;-146.40;54.73
13033;BME280;6583;42.632;23.298;2023-03-14T04:58:38;71517.91;;;-146.40;55.59
13033;BME280;6583;42.632;23.298;2023-03-14T05:01:05;71524.00;;;-146.40;56.87
13033;BME280;6583;42.632;23.298;2023-03-14T05:03:33;71524.00;;;-146.40;56.74
13033;BME280;6583;42.632;23.298;2023-03-14T05:06:01;71556.38;;;-146.40;57.18
13033;BME280;6583;42.632;23.298;2023-03-14T05:08:28;71574.59;;;-146.40;57.70
13033;BME280;6583;42.632;23.298;2023-03-14T05:10:56;71582.69;;;-146.40;58.45
13033;BME280;6583;42.632;23.298;2023-03-14T05:13:23;71594.81;;;-146.40;59.65
13033;BME280;6583;42.632;23.298;2023-03-14T05:15:50;71584.69;;;-146.40;60.97
13033;BME280;6583;42.632;23.298;2023-03-14T05:18:17;71570.53;;;-146.40;61.01
13033;BME280;6583;42.632;23.298;2023-03-14T05:20:45;71552.31;;;-146.40;60.64
13033;BME280;6583;42.632;23.298;2023-03-14T05:23:12;71554.34;;;-146.40;60.73
13033;BME280;6583;42.632;23.298;2023-03-14T05:25:38;71552.31;;;-146.40;61.57
13033;BME280;6583;42.632;23.298;2023-03-14T05:28:05;71550.28;;;-146.40;62.27
13033;BME280;6583;42.632;23.298;2023-03-14T05:30:32;71530.06;;;-146.40;61.54
13033;BME280;6583;42.632;23.298;2023-03-14T05:32:59;71519.94;;;-146.40;60.42
13033;BME280;6583;42.632;23.298;2023-03-14T05:35:25;71507.78;;;-146.40;57.49
13033;BME280;6583;42.632;23.298;2023-03-14T05:37:53;71501.72;;;-146.40;54.88
13033;BME280;6583;42.632;23.298;2023-03-14T05:40:20;71497.69;;;-146.40;54.23
13033;BME280;6583;42.632;23.298;2023-03-14T05:42:47;71499.69;;;-146.40;53.21
13033;BME280;6583;42.632;23.298;2023-03-14T05:45:13;71489.59;;;-146.40;52.52
13033;BME280;6583;42.632;23.298;2023-03-14T05:47:40;71485.53;;;-146.40;51.63
13033;BME280;6583;42.632;23.298;2023-03-14T05:50:08;71481.50;;;-146.40;50.79
13033;BME280;6583;42.632;23.298;2023-03-14T05:52:34;71473.41;;;-146.40;50.76
13033;BME280;6583;42.632;23.298;2023-03-14T05:55:03;71465.28;;;-146.40;50.20
13033;BME280;6583;42.632;23.298;2023-03-14T05:57:30;71457.19;;;-146.40;50.35
13033;BME280;6583;42.632;23.298;2023-03-14T05:59:57;71449.09;;;-146.40;50.28
13033;BME280;6583;42.632;23.298;2023-03-14T06:02:23;71441.00;;;-146.40;48.94
13033;BME280;6583;42.632;23.298;2023-03-14T06:04:50;71432.91;;;-146.40;50.06
13033;BME280;6583;42.632;23.298;2023-03-14T06:07:16;71428.88;;;-146.40;49.54
13033;BME280;6583;42.632;23.298;2023-03-14T06:09:43;71418.75;;;-146.40;50.48
13033;BME280;6583;42.632;23.298;2023-03-14T06:12:11;71404.59;;;-146.40;51.55
13033;BME280;6583;42.632;23.298;2023-03-14T06:14:38;71396.50;;;-146.40;51.01
13033;BME280;6583;42.632;23.298;2023-03-14T06:17:04;71380.31;;;-146.40;50.78
13033;BME280;6583;42.632;23.298;2023-03-14T06:19:31;71376.25;;;-146.40;51.24
13033;BME280;6583;42.632;23.298;2023-03-14T06:21:57;71368.16;;;-146.40;51.59
13033;BME280;6583;42.632;23.298;2023-03-14T06:24:24;71354.00;;;-146.40;51.44
13033;BME280;6583;42.632;23.298;2023-03-14T06:26:51;71347.91;;;-146.40;50.20
13033;BME280;6583;42.632;23.298;2023-03-14T06:29:19;71349.94;;;-146.40;50.00
13033;BME280;6583;42.632;23.298;2023-03-14T06:31:45;71339.81;;;-146.40;50.28
13033;BME280;6583;42.632;23.298;2023-03-14T06:34:12;71337.81;;;-146.40;49.66
13033;BME280;6583;42.632;23.298;2023-03-14T06:36:39;71327.69;;;-146.40;47.82
13033;BME280;6583;42.632;23.298;2023-03-14T06:39:06;71331.72;;;-146.40;48.54
13033;BME280;6583;42.632;23.298;2023-03-14T06:41:32;71339.81;;;-146.40;48.43
13033;BME280;6583;42.632;23.298;2023-03-14T06:43:59;71327.69;;;-146.40;47.87
13033;BME280;6583;42.632;23.298;2023-03-14T06:46:27;71313.53;;;-146.40;48.06
13033;BME280;6583;42.632;23.298;2023-03-14T06:48:54;71303.41;;;-146.40;47.41
13033;BME280;6583;42.632;23.298;2023-03-14T06:51:20;71279.13;;;-146.40;47.03
13033;BME280;6583;42.632;23.298;2023-03-14T06:53:47;71275.06;;;-146.40;46.17
13033;BME280;6583;42.632;23.298;2023-03-14T06:56:14;71252.81;;;-146.40;46.40
13033;BME280;6583;42.632;23.298;2023-03-14T06:58:40;71242.69;;;-146.40;46.39
13033;BME280;6583;42.632;23.298;2023-03-14T07:01:17;71226.50;;;-146.40;46.42
13033;BME280;6583;42.632;23.298;2023-03-14T07:03:47;71206.25;;;-146.40;46.00
13033;BME280;6583;42.632;23.298;2023-03-14T07:06:14;71230.56;;;-146.40;46.42
13033;BME280;6583;42.632;23.298;2023-03-14T07:08:41;71208.28;;;-146.40;47.04
13033;BME280;6583;42.632;23.298;2023-03-14T07:11:07;71216.38;;;-146.40;46.16
13033;BME280;6583;42.632;23.298;2023-03-14T07:13:36;71222.44;;;-146.40;46.79
13033;BME280;6583;42.632;23.298;2023-03-14T07:16:03;71206.25;;;-146.40;46.61
13033;BME280;6583;42.632;23.298;2023-03-14T07:18:30;71206.25;;;-146.40;46.16
13033;BME280;6583;42.632;23.298;2023-03-14T07:20:58;71208.28;;;-146.40;45.89
13033;BME280;6583;42.632;23.298;2023-03-14T07:23:25;71186.03;;;-146.40;46.49
13033;BME280;6583;42.632;23.298;2023-03-14T07:25:52;71165.78;;;-146.40;44.87
13033;BME280;6583;42.632;23.298;2023-03-14T07:28:19;71153.66;;;-146.40;45.15
13033;BME280;6583;42.632;23.298;2023-03-14T07:30:46;71135.44;;;-146.40;45.90
13033;BME280;6583;42.632;23.298;2023-03-14T07:33:12;71123.28;;;-146.40;45.19
13033;BME280;6583;42.632;23.298;2023-03-14T07:35:39;71111.16;;;-146.40;45.16
13033;BME280;6583;42.632;23.298;2023-03-14T07:38:07;71092.94;;;-146.40;45.39
13033;BME280;6583;42.632;23.298;2023-03-14T07:40:34;71072.72;;;-146.40;45.95
13033;BME280;6583;42.632;23.298;2023-03-14T07:43:00;71066.63;;;-146.40;44.40
13033;BME280;6583;42.632;23.298;2023-03-14T07:45:27;71042.34;;;-146.40;44.82
13033;BME280;6583;42.632;23.298;2023-03-14T07:47:54;71044.38;;;-146.40;44.64
13033;BME280;6583;42.632;23.298;2023-03-14T07:50:22;71022.13;;;-146.40;45.14
13033;BME280;6583;42.632;23.298;2023-03-14T07:52:49;71016.06;;;-146.40;44.43
13033;BME280;6583;42.632;23.298;2023-03-14T07:55:17;71003.91;;;-146.40;43.84
13033;BME280;6583;42.632;23.298;2023-03-14T07:57:44;70999.88;;;-146.40;44.30
13033;BME280;6583;42.632;23.298;2023-03-14T08:00:12;70991.78;;;-146.40;44.20
13033;BME280;6583;42.632;23.298;2023-03-14T08:02:39;70991.78;;;-146.40;43.34
13033;BME280;6583;42.632;23.298;2023-03-14T08:05:07;70993.78;;;-146.40;44.10
13033;BME280;6583;42.632;23.298;2023-03-14T08:07:33;70989.75;;;-146.40;43.87
13033;BME280;6583;42.632;23.298;2023-03-14T08:10:00;70975.59;;;-146.40;43.33
13033;BME280;6583;42.632;23.298;2023-03-14T08:12:28;70975.59;;;-146.40;43.12
13033;BME280;6583;42.632;23.298;2023-03-14T08:14:55;70963.44;;;-146.40;42.35
13033;BME280;6583;42.632;23.298;2023-03-14T08:17:21;70955.34;;;-146.40;42.86
13033;BME280;6583;42.632;23.298;2023-03-14T08:19:48;70945.22;;;-146.40;42.95
13033;BME280;6583;42.632;23.298;2023-03-14T08:22:15;70931.06;;;-146.40;42.14
13033;BME280;6583;42.632;23.298;2023-03-14T08:24:41;70931.06;;;-146.40;41.97
13033;BME280;6583;42.632;23.298;2023-03-14T08:27:08;70929.03;;;-146.40;42.68
13033;BME280;6583;42.632;23.298;2023-03-14T08:29:36;70918.94;;;-146.40;42.27
13033;BME280;6583;42.632;23.298;2023-03-14T08:32:03;70912.84;;;-146.40;40.75
13033;BME280;6583;42.632;23.298;2023-03-14T08:34:30;70908.81;;;-146.40;41.55
13033;BME280;6583;42.632;23.298;2023-03-14T08:36:56;70902.75;;;-146.40;42.00
13033;BME280;6583;42.632;23.298;2023-03-14T08:39:23;70892.63;;;-146.40;41.51
13033;BME280;6583;42.632;23.298;2023-03-14T08:41:50;70878.47;;;-146.40;41.24
13033;BME280;6583;42.632;23.298;2023-03-14T08:44:16;70896.66;;;-146.40;40.95
13033;BME280;6583;42.632;23.298;2023-03-14T08:46:44;70890.59;;;-146.40;41.26
13033;BME280;6583;42.632;23.298;2023-03-14T08:49:11;70858.22;;;-146.40;40.67
13033;BME280;6583;42.632;23.298;2023-03-14T08:51:39;70846.09;;;-146.40;40.16
13033;BME280;6583;42.632;23.298;2023-03-14T08:54:06;70829.91;;;-146.40;39.87
13033;BME280;6583;42.632;23.298;2023-03-14T08:56:36;70829.91;;;-146.40;39.66
13033;BME280;6583;42.632;23.298;2023-03-14T08:59:03;70807.63;;;-146.40;39.60
13033;BME280;6583;42.632;23.298;2023-03-14T09:01:29;70801.56;;;-146.40;39.13
13033;BME280;6583;42.632;23.298;2023-03-14T09:03:58;70785.38;;;-146.40;40.16
13033;BME280;6583;42.632;23.298;2023-03-14T09:06:24;70775.25;;;-146.40;39.53
13033;BME280;6583;42.632;23.298;2023-03-14T09:08:51;70759.06;;;-146.40;38.69
13033;BME280;6583;42.632;23.298;2023-03-14T09:11:17;70730.75;;;-146.40;38.97
13033;BME280;6583;42.632;23.298;2023-03-14T09:13:44;70706.47;;;-146.40;38.04
13033;BME280;6583;42.632;23.298;2023-03-14T09:16:11;70702.41;;;-146.40;38.04
13033;BME280;6583;42.632;23.298;2023-03-14T09:18:38;70690.28;;;-146.40;37.78
13033;BME280;6583;42.632;23.298;2023-03-14T09:21:06;70676.13;;;-146.40;37.90
13033;BME280;6583;42.632;23.298;2023-03-14T09:23:33;70666.00;;;-146.40;37.31
13033;BME280;6583;42.632;23.298;2023-03-14T09:26:00;70659.94;;;-146.40;37.43
13033;BME280;6583;42.632;23.298;2023-03-14T09:28:27;70649.81;;;-146.40;37.45
13033;BME280;6583;42.632;23.298;2023-03-14T09:30:54;70641.72;;;-146.40;38.12
13033;BME280;6583;42.632;23.298;2023-03-14T09:33:20;70639.69;;;-146.40;37.72
13033;BME280;6583;42.632;23.298;2023-03-14T09:35:47;70625.53;;;-146.40;37.92
13033;BME280;6583;42.632;23.298;2023-03-14T09:38:15;70635.66;;;-146.40;37.95
13033;BME280;6583;42.632;23.298;2023-03-14T09:40:43;70619.47;;;-146.40;37.79
13033;BME280;6583;42.632;23.298;2023-03-14T09:43:11;70595.19;;;-146.40;37.81
13033;BME280;6583;42.632;23.298;2023-03-14T09:45:40;70579.00;;;-146.40;37.36
13033;BME280;6583;42.632;23.298;2023-03-14T09:48:12;70568.88;;;-146.40;37.61
13033;BME280;6583;42.632;23.298;2023-03-14T09:50:43;70572.94;;;-146.40;38.09
13033;BME280;6583;42.632;23.298;2023-03-14T09:53:14;70538.53;;;-146.40;37.73
13033;BME280;6583;42.632;23.298;2023-03-14T09:55:45;70528.41;;;-146.40;37.19
13033;BME280;6583;42.632;23.298;2023-03-14T09:58:16;70506.16;;;-146.40;37.39
13033;BME280;6583;42.632;23.298;2023-03-14T10:00:44;70506.16;;;-146.40;36.20
13033;BME280;6583;42.632;23.298;2023-03-14T10:03:22;70479.88;;;-146.40;36.81
13033;BME280;6583;42.632;23.298;2023-03-14T10:05:49;70485.94;;;-146.40;36.00
13033;BME280;6583;42.632;23.298;2023-03-14T10:08:15;70479.88;;;-146.40;36.03
13033;BME280;6583;42.632;23.298;2023-03-14T10:10:43;70475.81;;;-146.40;35.87
13033;BME280;6583;42.632;23.298;2023-03-14T10:13:16;70469.75;;;-146.40;35.66
13033;BME280;6583;42.632;23.298;2023-03-14T10:15:48;70457.59;;;-146.40;36.97
13033;BME280;6583;42.632;23.298;2023-03-14T10:18:15;70449.53;;;-146.40;36.81
13033;BME280;6583;42.632;23.298;2023-03-14T10:20:42;70447.50;;;-146.40;35.44
13033;BME280;6583;42.632;23.298;2023-03-14T10:23:23;70431.31;;;-146.40;36.32
13033;BME280;6583;42.632;23.298;2023-03-14T10:26:03;70409.06;;;-146.40;36.30
13033;BME280;6583;42.632;23.298;2023-03-14T10:28:33;70384.78;;;-146.40;36.11
13033;BME280;6583;42.632;23.298;2023-03-14T10:31:00;70364.53;;;-146.40;35.49
13033;BME280;6583;42.632;23.298;2023-03-14T10:33:29;70360.50;;;-146.40;35.29
13033;BME280;6583;42.632;23.298;2023-03-14T10:35:58;70360.50;;;-146.40;35.21
13033;BME280;6583;42.632;23.298;2023-03-14T10:38:27;70346.34;;;-146.40;35.02
13033;BME280;6583;42.632;23.298;2023-03-14T10:40:55;70334.19;;;-146.40;35.30
13033;BME280;6583;42.632;23.298;2023-03-14T10:43:25;70322.06;;;-146.40;35.77
13033;BME280;6583;42.632;23.298;2023-03-14T10:45:55;70318.00;;;-146.40;34.89
13033;BME280;6583;42.632;23.298;2023-03-14T10:48:29;70307.91;;;-146.40;35.37
13033;BME280;6583;42.632;23.298;2023-03-14T10:50:57;70305.88;;;-146.40;34.99
13033;BME280;6583;42.632;23.298;2023-03-14T10:53:24;70285.66;;;-146.40;35.04
13033;BME280;6583;42.632;23.298;2023-03-14T10:55:52;70271.47;;;-146.40;34.77
13033;BME280;6583;42.632;23.298;2023-03-14T10:58:25;70253.28;;;-146.40;35.16
13033;BME280;6583;42.632;23.298;2023-03-14T11:01:00;70231.03;;;-146.40;35.48
13033;BME280;6583;42.632;23.298;2023-03-14T11:03:32;70222.94;;;-146.40;35.28
13033;BME280;6583;42.632;23.298;2023-03-14T11:06:06;70210.78;;;-146.40;34.63
13033;BME280;6583;42.632;23.298;2023-03-14T11:08:42;70218.88;;;-146.40;34.51
13033;BME280;6583;42.632;23.298;2023-03-14T11:11:18;70212.81;;;-146.40;34.83
13033;BME280;6583;42.632;23.298;2023-03-14T11:13:57;70218.88;;;-146.40;34.61
13033;BME280;6583;42.632;23.298;2023-03-14T11:16:32;70214.84;;;-146.40;35.05
13033;BME280;6583;42.632;23.298;2023-03-14T11:19:12;70202.69;;;-146.40;35.03
13033;BME280;6583;42.632;23.298;2023-03-14T11:21:47;70202.69;;;-146.40;35.49
13033;BME280;6583;42.632;23.298;2023-03-14T11:24:33;70172.34;;;-146.40;35.72
13033;BME280;6583;42.632;23.298;2023-03-14T11:27:06;70156.16;;;-146.40;35.34
13033;BME280;6583;42.632;23.298;2023-03-14T11:29:40;70146.06;;;-146.40;35.68
13033;BME280;6583;42.632;23.298;2023-03-14T11:32:13;70119.75;;;-146.40;35.42
13033;BME280;6583;42.632;23.298;2023-03-14T11:34:47;70105.59;;;-146.40;35.34
13033;BME280;6583;42.632;23.298;2023-03-14T11:37:21;70089.41;;;-146.40;35.05
13033;BME280;6583;42.632;23.298;2023-03-14T11:39:56;70097.50;;;-146.40;34.95
13033;BME280;6583;42.632;23.298;2023-03-14T11:42:26;70089.41;;;-146.40;34.80
13033;BME280;6583;42.632;23.298;2023-03-14T11:44:55;70089.41;;;-146.40;34.74
13033;BME280;6583;42.632;23.298;2023-03-14T11:47:26;70073.22;;;-146.40;35.17
13033;BME280;6583;42.632;23.298;2023-03-14T11:50:00;70069.19;;;-146.40;34.21
13033;BME280;6583;42.632;23.298;2023-03-14T11:52:31;70061.09;;;-146.40;34.66
13033;BME280;6583;42.632;23.298;2023-03-14T11:55:04;70048.97;;;-146.40;35.17
13033;BME280;6583;42.632;23.298;2023-03-14T11:57:31;70040.88;;;-146.40;34.02
13033;BME280;6583;42.632;23.298;2023-03-14T12:00:01;70040.88;;;-146.40;34.47
13033;BME280;6583;42.632;23.298;2023-03-14T12:02:35;70032.78;;;-146.40;34.93
13033;BME280;6583;42.632;23.298;2023-03-14T12:05:36;70024.69;;;-146.40;35.17
13033;BME280;6583;42.632;23.298;2023-03-14T12:08:22;70014.56;;;-146.40;34.56
13033;BME280;6583;42.632;23.298;2023-03-14T12:10:54;70014.56;;;-146.40;34.61
13033;BME280;6583;42.632;23.298;2023-03-14T12:13:28;70012.53;;;-146.40;34.00
13033;BME280;6583;42.632;23.298;2023-03-14T12:15:58;69998.38;;;-146.40;33.86
13033;BME280;6583;42.632;23.298;2023-03-14T12:18:28;69984.22;;;-146.40;34.33
13033;BME280;6583;42.632;23.298;2023-03-14T12:20:58;69972.09;;;-146.40;33.86
13033;BME280;6583;42.632;23.298;2023-03-14T12:23:26;69966.00;;;-146.40;33.35
13033;BME280;6583;42.632;23.298;2023-03-14T12:26:12;69955.91;;;-146.40;33.60
13033;BME280;6583;42.632;23.298;2023-03-14T12:28:42;69949.84;;;-146.40;33.61
13033;BME280;6583;42.632;23.298;2023-03-14T12:31:40;69935.66;;;-146.40;33.61
13033;BME280;6583;42.632;23.298;2023-03-14T12:34:28;69921.50;;;-146.40;33.58
13033;BME280;6583;42.632;23.298;2023-03-14T12:37:01;69919.50;;;-146.40;32.68
13033;BME280;6583;42.632;23.298;2023-03-14T12:39:37;69915.44;;;-146.40;33.58
13033;BME280;6583;42.632;23.298;2023-03-14T12:42:10;69911.41;;;-146.40;32.91
13033;BME280;6583;42.632;23.298;2023-03-14T12:44:45;69911.41;;;-146.40;32.92
13033;BME280;6583;42.632;23.298;2023-03-14T12:47:46;69897.25;;;-146.40;32.81
13033;BME280;6583;42.632;23.298;2023-03-14T12:50:22;69895.22;;;-146.40;33.13